sensor_id;sensor_type;location;lat;lon;timestamp;pressure;altitude;pressure_sealevel;temperature;humidity
13050;BME280;6591;51.446;5.404;2022-09-06T00:00:26;101325.25;;;24.34;48.16
13050;BME280;6591;51.446;5.404;2022-09-06T00:02:53;101329.25;;;24.30;48.24
13050;BME280;6591;51.446;5.404;2022-09-06T00:05:21;101324.13;;;24.27;48.44
13050;BME280;6591;51.446;5.404;2022-09-06T00:07:51;101353.41;;;24.24;48.78
13050;BME280;6591;51.446;5.404;2022-09-06T00:10:18;101371.59;;;24.23;48.66
13050;BME280;6591;51.446;5.404;2022-09-06T00:12:45;101366.41;;;24.20;48.91
13050;BME280;6591;51.446;5.404;2022-09-06T00:15:13;101368.16;;;24.21;48.83
13050;BME280;6591;51.446;5.404;2022-09-06T00:17:40;101390.84;;;24.20;49.06
13050;BME280;6591;51.446;5.404;2022-09-06T00:20:07;101379.28;;;24.18;49.20
13050;BME280;6591;51.446;5.404;2022-09-06T00:22:36;101368.41;;;24.18;48.74
13050;BME280;6591;51.446;5.404;2022-09-06T00:25:05;101362.97;;;24.18;49.09
13050;BME280;6591;51.446;5.404;2022-09-06T00:27:34;101376.56;;;24.18;48.80
13050;BME280;6591;51.446;5.404;2022-09-06T00:30:02;101374.88;;;24.17;49.14
13050;BME280;6591;51.446;5.404;2022-09-06T00:32:31;101364.97;;;24.16;48.97
13050;BME280;6591;51.446;5.404;2022-09-06T00:34:58;101369.44;;;24.17;49.19
13050;BME280;6591;51.446;5.404;2022-09-06T00:37:25;101369.44;;;24.17;49.29
13050;BME280;6591;51.446;5.404;2022-09-06T00:39:52;101355.97;;;24.16;49.21
13050;BME280;6591;51.446;5.404;2022-09-06T00:42:19;101354.25;;;24.15;49.69
13050;BME280;6591;51.446;5.404;2022-09-06T00:44:48;101346.09;;;24.15;49.59
13050;BME280;6591;51.446;5.404;2022-09-06T00:47:15;101335.38;;;24.13;49.62
13050;BME280;6591;51.446;5.404;2022-09-06T00:49:48;101330.97;;;24.12;49.72
13050;BME280;6591;51.446;5.404;2022-09-06T00:52:17;101324.69;;;24.12;49.64
13050;BME280;6591;51.446;5.404;2022-09-06T00:54:47;101326.56;;;24.11;49.78
13050;BME280;6591;51.446;5.404;2022-09-06T00:57:16;101323.84;;;24.11;49.71
13050;BME280;6591;51.446;5.404;2022-09-06T00:59:45;101316.69;;;24.10;49.90
13050;BME280;6591;51.446;5.404;2022-09-06T01:02:13;101314.97;;;24.09;49.70
13050;BME280;6591;51.446;5.404;2022-09-06T01:04:42;101311.25;;;24.10;50.01
13050;BME280;6591;51.446;5.404;2022-09-06T01:10:32;101298.28;;;24.04;50.47
13050;BME280;6591;51.446;5.404;2022-09-06T01:13:24;101293.84;;;24.03;50.52
13050;BME280;6591;51.446;5.404;2022-09-06T01:27:08;101223.28;;;24.03;51.12
13050;BME280;6591;51.446;5.404;2022-09-06T01:35:19;101206.44;;;23.99;51.35
13050;BME280;6591;51.446;5.404;2022-09-06T01:37:54;101183.44;;;24.03;50.90
13050;BME280;6591;51.446;5.404;2022-09-06T01:40:22;101161.59;;;24.05;50.92
13050;BME280;6591;51.446;5.404;2022-09-06T01:42:50;101150.00;;;24.03;51.28
13050;BME280;6591;51.446;5.404;2022-09-06T01:51:52;101078.13;;;23.89;52.16
13050;BME280;6591;51.446;5.404;2022-09-06T01:55:04;101113.69;;;23.86;52.07
13050;BME280;6591;51.446;5.404;2022-09-06T01:57:56;101175.78;;;23.89;52.09
13050;BME280;6591;51.446;5.404;2022-09-06T02:00:31;101185.47;;;23.92;51.65
13050;BME280;6591;51.446;5.404;2022-09-06T02:03:22;101163.06;;;23.90;51.54
13050;BME280;6591;51.446;5.404;2022-09-06T02:06:06;101162.75;;;23.93;51.44
13050;BME280;6591;51.446;5.404;2022-09-06T02:08:47;101164.47;;;23.94;51.44
13050;BME280;6591;51.446;5.404;2022-09-06T02:11:16;101159.59;;;23.97;51.19
13050;BME280;6591;51.446;5.404;2022-09-06T02:13:57;101149.06;;;23.94;51.21
13050;BME280;6591;51.446;5.404;2022-09-06T02:16:31;101165.03;;;23.97;51.15
13050;BME280;6591;51.446;5.404;2022-09-06T02:19:34;101162.06;;;23.91;51.47
13050;BME280;6591;51.446;5.404;2022-09-06T02:22:09;101149.38;;;23.91;51.44
13050;BME280;6591;51.446;5.404;2022-09-06T02:24:41;101138.66;;;23.90;51.29
13050;BME280;6591;51.446;5.404;2022-09-06T02:27:11;101140.81;;;23.86;51.35
13050;BME280;6591;51.446;5.404;2022-09-06T02:29:39;101138.25;;;23.85;51.12
13050;BME280;6591;51.446;5.404;2022-09-06T02:32:23;101133.84;;;23.74;51.58
13050;BME280;6591;51.446;5.404;2022-09-06T02:34:54;101133.00;;;23.74;51.10
13050;BME280;6591;51.446;5.404;2022-09-06T02:37:24;101128.00;;;23.69;50.99
13050;BME280;6591;51.446;5.404;2022-09-06T02:39:54;101134.88;;;23.63;51.20
13050;BME280;6591;51.446;5.404;2022-09-06T02:42:23;101136.19;;;23.59;50.98
13050;BME280;6591;51.446;5.404;2022-09-06T02:44:50;101145.44;;;23.57;51.17
13050;BME280;6591;51.446;5.404;2022-09-06T02:47:17;101145.88;;;23.52;51.34
13050;BME280;6591;51.446;5.404;2022-09-06T02:49:44;101153.28;;;23.50;51.45
13050;BME280;6591;51.446;5.404;2022-09-06T02:52:11;101157.16;;;23.48;51.56
13050;BME280;6591;51.446;5.404;2022-09-06T02:54:38;101159.75;;;23.49;51.42
13050;BME280;6591;51.446;5.404;2022-09-06T02:57:05;101163.44;;;23.48;51.32
13050;BME280;6591;51.446;5.404;2022-09-06T02:59:32;101163.44;;;23.48;51.63
13050;BME280;6591;51.446;5.404;2022-09-06T03:01:59;101165.31;;;23.48;51.51
13050;BME280;6591;51.446;5.404;2022-09-06T03:04:26;101169.72;;;23.49;51.60
13050;BME280;6591;51.446;5.404;2022-09-06T03:06:53;101168.88;;;23.48;52.00
13050;BME280;6591;51.446;5.404;2022-09-06T03:09:22;101170.72;;;23.48;51.73
13050;BME280;6591;51.446;5.404;2022-09-06T03:11:49;101168.88;;;23.48;51.64
13050;BME280;6591;51.446;5.404;2022-09-06T03:14:17;101160.00;;;23.46;51.49
13050;BME280;6591;51.446;5.404;2022-09-06T03:16:46;101161.00;;;23.45;51.79
13050;BME280;6591;51.446;5.404;2022-09-06T03:19:13;101156.59;;;23.44;51.88
13050;BME280;6591;51.446;5.404;2022-09-06T03:21:40;101161.41;;;23.41;51.53
13050;BME280;6591;51.446;5.404;2022-09-06T03:24:07;101171.41;;;23.40;52.08
13050;BME280;6591;51.446;5.404;2022-09-06T03:26:34;101163.56;;;23.37;51.90
13050;BME280;6591;51.446;5.404;2022-09-06T03:29:01;101158.59;;;23.33;51.49
13050;BME280;6591;51.446;5.404;2022-09-06T03:31:28;101172.56;;;23.28;51.95
13050;BME280;6591;51.446;5.404;2022-09-06T03:33:55;101163.72;;;23.26;51.67
13050;BME280;6591;51.446;5.404;2022-09-06T03:36:22;101169.44;;;23.23;51.95
13050;BME280;6591;51.446;5.404;2022-09-06T03:38:49;101168.56;;;23.22;52.14
13050;BME280;6591;51.446;5.404;2022-09-06T03:41:16;101162.56;;;23.19;52.01
13050;BME280;6591;51.446;5.404;2022-09-06T03:43:43;101159.44;;;23.14;52.00
13050;BME280;6591;51.446;5.404;2022-09-06T03:46:10;101157.88;;;23.11;52.10
13050;BME280;6591;51.446;5.404;2022-09-06T03:48:37;101163.72;;;23.07;51.93
13050;BME280;6591;51.446;5.404;2022-09-06T03:51:04;101166.88;;;23.02;51.85
13050;BME280;6591;51.446;5.404;2022-09-06T03:53:32;101157.44;;;22.97;52.32
13050;BME280;6591;51.446;5.404;2022-09-06T03:55:59;101160.28;;;22.95;52.17
13050;BME280;6591;51.446;5.404;2022-09-06T03:58:31;101158.00;;;22.91;52.49
13050;BME280;6591;51.446;5.404;2022-09-06T04:01:07;101171.56;;;22.91;52.26
13050;BME280;6591;51.446;5.404;2022-09-06T04:03:36;101174.69;;;22.86;52.12
13050;BME280;6591;51.446;5.404;2022-09-06T04:06:05;101176.81;;;22.83;52.17
13050;BME280;6591;51.446;5.404;2022-09-06T04:08:34;101176.09;;;22.80;52.29
13050;BME280;6591;51.446;5.404;2022-09-06T04:11:01;101177.38;;;22.76;52.30
13050;BME280;6591;51.446;5.404;2022-09-06T04:13:30;101177.66;;;22.73;52.54
13050;BME280;6591;51.446;5.404;2022-09-06T04:15:57;101181.50;;;22.71;52.36
13050;BME280;6591;51.446;5.404;2022-09-06T04:18:25;101183.59;;;22.67;52.22
13050;BME280;6591;51.446;5.404;2022-09-06T04:20:54;101183.75;;;22.66;52.33
13050;BME280;6591;51.446;5.404;2022-09-06T04:23:25;101182.44;;;22.60;52.56
13050;BME280;6591;51.446;5.404;2022-09-06T04:25:55;101182.69;;;22.57;52.81
13050;BME280;6591;51.446;5.404;2022-09-06T04:28:23;101178.28;;;22.56;52.79
13050;BME280;6591;51.446;5.404;2022-09-06T04:30:58;101183.25;;;22.51;52.63
13050;BME280;6591;51.446;5.404;2022-09-06T04:33:35;101178.84;;;22.50;52.73
13050;BME280;6591;51.446;5.404;2022-09-06T04:36:08;101178.13;;;22.48;52.74
13050;BME280;6591;51.446;5.404;2022-09-06T04:38:39;101177.41;;;22.46;52.79
13050;BME280;6591;51.446;5.404;2022-09-06T04:41:09;101187.53;;;22.44;52.67
13050;BME280;6591;51.446;5.404;2022-09-06T04:43:36;101198.47;;;22.43;52.53
13050;BME280;6591;51.446;5.404;2022-09-06T04:46:26;101187.63;;;22.33;52.92
13050;BME280;6591;51.446;5.404;2022-09-06T04:48:54;101192.91;;;22.34;52.57
13050;BME280;6591;51.446;5.404;2022-09-06T04:51:24;101193.28;;;22.30;53.02
13050;BME280;6591;51.446;5.404;2022-09-06T04:53:51;101190.00;;;22.26;52.56
13050;BME280;6591;51.446;5.404;2022-09-06T04:56:25;101193.00;;;22.23;52.52
13050;BME280;6591;51.446;5.404;2022-09-06T04:58:54;101197.69;;;22.21;53.10
13050;BME280;6591;51.446;5.404;2022-09-06T05:01:21;101200.38;;;22.21;52.87
13050;BME280;6591;51.446;5.404;2022-09-06T05:03:52;101201.53;;;22.19;53.00
13050;BME280;6591;51.446;5.404;2022-09-06T05:06:24;101196.38;;;22.16;52.86
13050;BME280;6591;51.446;5.404;2022-09-06T05:08:51;101187.38;;;22.15;52.90
13050;BME280;6591;51.446;5.404;2022-09-06T05:11:19;101181.41;;;22.12;52.81
13050;BME280;6591;51.446;5.404;2022-09-06T05:13:46;101178.81;;;22.10;53.18
13050;BME280;6591;51.446;5.404;2022-09-06T05:16:13;101190.50;;;22.11;53.20
13050;BME280;6591;51.446;5.404;2022-09-06T05:18:41;101195.19;;;22.09;53.51
13050;BME280;6591;51.446;5.404;2022-09-06T05:21:08;101180.09;;;22.06;53.44
13050;BME280;6591;51.446;5.404;2022-09-06T05:23:35;101188.22;;;22.06;53.69
13050;BME280;6591;51.446;5.404;2022-09-06T05:26:02;101182.69;;;22.08;53.59
13050;BME280;6591;51.446;5.404;2022-09-06T05:28:30;101185.09;;;22.11;53.52
13050;BME280;6591;51.446;5.404;2022-09-06T05:31:23;101186.09;;;22.10;54.05
13050;BME280;6591;51.446;5.404;2022-09-06T05:33:52;101185.97;;;22.11;53.94
13050;BME280;6591;51.446;5.404;2022-09-06T05:36:20;101190.69;;;22.19;53.91
13050;BME280;6591;51.446;5.404;2022-09-06T05:38:54;101196.13;;;22.19;53.78
13050;BME280;6591;51.446;5.404;2022-09-06T05:41:22;101191.16;;;22.24;53.57
13050;BME280;6591;51.446;5.404;2022-09-06T05:43:49;101194.31;;;22.29;53.66
13050;BME280;6591;51.446;5.404;2022-09-06T05:46:16;101202.88;;;22.34;53.88
13050;BME280;6591;51.446;5.404;2022-09-06T05:48:52;101190.03;;;22.36;54.19
13050;BME280;6591;51.446;5.404;2022-09-06T05:51:19;101194.06;;;22.42;54.17
13050;BME280;6591;51.446;5.404;2022-09-06T05:53:46;101191.78;;;22.47;54.13
13050;BME280;6591;51.446;5.404;2022-09-06T05:56:15;101190.66;;;22.49;54.12
13050;BME280;6591;51.446;5.404;2022-09-06T05:58:42;101191.97;;;22.55;54.01
13050;BME280;6591;51.446;5.404;2022-09-06T06:01:22;101185.41;;;22.57;54.55
13050;BME280;6591;51.446;5.404;2022-09-06T06:03:58;101184.00;;;22.63;54.49
13050;BME280;6591;51.446;5.404;2022-09-06T06:06:31;101187.03;;;22.69;54.52
13050;BME280;6591;51.446;5.404;2022-09-06T06:09:02;101188.66;;;22.82;54.08
13050;BME280;6591;51.446;5.404;2022-09-06T06:11:29;101187.94;;;22.89;54.40
13050;BME280;6591;51.446;5.404;2022-09-06T06:13:57;101196.06;;;22.99;54.15
13050;BME280;6591;51.446;5.404;2022-09-06T06:16:24;101195.09;;;23.09;54.59
13050;BME280;6591;51.446;5.404;2022-09-06T06:18:52;101190.69;;;23.18;54.28
13050;BME280;6591;51.446;5.404;2022-09-06T06:23:52;101194.66;;;23.43;54.20
13050;BME280;6591;51.446;5.404;2022-09-06T06:26:21;101184.84;;;23.51;54.36
13050;BME280;6591;51.446;5.404;2022-09-06T06:28:49;101186.41;;;23.63;54.43
13050;BME280;6591;51.446;5.404;2022-09-06T06:31:20;101183.53;;;23.75;54.66
13050;BME280;6591;51.446;5.404;2022-09-06T06:33:49;101187.63;;;23.88;54.32
13050;BME280;6591;51.446;5.404;2022-09-06T06:38:44;101183.41;;;24.13;54.31
13050;BME280;6591;51.446;5.404;2022-09-06T06:41:18;101181.38;;;24.25;53.99
13050;BME280;6591;51.446;5.404;2022-09-06T06:43:46;101183.63;;;24.39;54.18
13050;BME280;6591;51.446;5.404;2022-09-06T06:46:17;101186.97;;;24.51;54.17
13050;BME280;6591;51.446;5.404;2022-09-06T06:48:45;101186.19;;;24.68;54.19
13050;BME280;6591;51.446;5.404;2022-09-06T06:51:23;101181.22;;;24.81;53.77
13050;BME280;6591;51.446;5.404;2022-09-06T06:53:50;101185.19;;;24.96;53.67
13050;BME280;6591;51.446;5.404;2022-09-06T06:56:34;101183.06;;;25.08;54.15
13050;BME280;6591;51.446;5.404;2022-09-06T06:59:04;101186.50;;;25.27;53.94
13050;BME280;6591;51.446;5.404;2022-09-06T07:01:36;101178.47;;;25.44;53.85
13050;BME280;6591;51.446;5.404;2022-09-06T07:04:04;101175.59;;;25.63;53.62
13050;BME280;6591;51.446;5.404;2022-09-06T07:06:46;101179.31;;;25.80;53.37
13050;BME280;6591;51.446;5.404;2022-09-06T07:09:34;101176.25;;;26.08;53.01
13050;BME280;6591;51.446;5.404;2022-09-06T07:12:25;101171.28;;;26.30;52.88
13050;BME280;6591;51.446;5.404;2022-09-06T07:14:52;101169.84;;;26.51;52.49
13050;BME280;6591;51.446;5.404;2022-09-06T07:17:19;101170.41;;;26.71;52.58
13050;BME280;6591;51.446;5.404;2022-09-06T07:19:46;101171.84;;;26.91;52.60
13050;BME280;6591;51.446;5.404;2022-09-06T07:22:34;101169.50;;;27.13;52.24
13050;BME280;6591;51.446;5.404;2022-09-06T07:25:03;101163.75;;;27.32;51.56
13050;BME280;6591;51.446;5.404;2022-09-06T07:27:30;101167.16;;;27.50;51.82
13050;BME280;6591;51.446;5.404;2022-09-06T07:30:15;101166.78;;;27.69;50.97
13050;BME280;6591;51.446;5.404;2022-09-06T07:32:42;101174.63;;;27.89;51.36
13050;BME280;6591;51.446;5.404;2022-09-06T07:35:09;101175.09;;;28.08;50.45
13050;BME280;6591;51.446;5.404;2022-09-06T07:37:38;101182.91;;;28.28;50.09
13050;BME280;6591;51.446;5.404;2022-09-06T07:40:05;101179.09;;;28.45;49.78
13050;BME280;6591;51.446;5.404;2022-09-06T07:42:33;101183.25;;;28.63;49.67
13050;BME280;6591;51.446;5.404;2022-09-06T07:45:04;101173.81;;;28.82;49.47
13050;BME280;6591;51.446;5.404;2022-09-06T07:47:31;101175.22;;;29.01;49.66
13050;BME280;6591;51.446;5.404;2022-09-06T07:50:18;101169.94;;;29.22;49.21
13050;BME280;6591;51.446;5.404;2022-09-06T07:53:06;101177.31;;;29.44;48.82
13050;BME280;6591;51.446;5.404;2022-09-06T07:55:40;101168.41;;;29.65;48.66
13050;BME280;6591;51.446;5.404;2022-09-06T07:58:07;101171.47;;;29.85;48.53
13050;BME280;6591;51.446;5.404;2022-09-06T08:00:34;101162.75;;;30.04;48.21
13050;BME280;6591;51.446;5.404;2022-09-06T08:03:01;101160.47;;;30.22;47.96
13050;BME280;6591;51.446;5.404;2022-09-06T08:05:28;101159.88;;;30.42;47.98
13050;BME280;6591;51.446;5.404;2022-09-06T08:08:15;101153.91;;;30.67;47.74
13050;BME280;6591;51.446;5.404;2022-09-06T08:11:03;101157.16;;;30.92;47.43
13050;BME280;6591;51.446;5.404;2022-09-06T08:13:33;101158.88;;;31.14;47.24
13050;BME280;6591;51.446;5.404;2022-09-06T08:16:07;101163.06;;;31.32;46.87
13050;BME280;6591;51.446;5.404;2022-09-06T08:18:35;101166.41;;;31.48;46.39
13050;BME280;6591;51.446;5.404;2022-09-06T08:21:13;101173.28;;;31.59;45.80
13050;BME280;6591;51.446;5.404;2022-09-06T08:23:46;101160.03;;;31.69;45.07
13050;BME280;6591;51.446;5.404;2022-09-06T08:26:19;101168.59;;;31.81;45.28
13050;BME280;6591;51.446;5.404;2022-09-06T08:29:07;101179.66;;;31.94;44.91
13050;BME280;6591;51.446;5.404;2022-09-06T08:31:41;101200.72;;;32.08;44.62
13050;BME280;6591;51.446;5.404;2022-09-06T08:34:09;101192.31;;;32.16;44.42
13050;BME280;6591;51.446;5.404;2022-09-06T08:36:39;101165.75;;;32.23;44.27
13050;BME280;6591;51.446;5.404;2022-09-06T08:39:08;101163.00;;;32.30;44.01
13050;BME280;6591;51.446;5.404;2022-09-06T08:42:05;101176.59;;;32.38;44.15
13050;BME280;6591;51.446;5.404;2022-09-06T08:44:38;101166.50;;;32.52;43.66
13050;BME280;6591;51.446;5.404;2022-09-06T08:47:23;101172.25;;;32.63;43.78
13050;BME280;6591;51.446;5.404;2022-09-06T08:49:54;101171.06;;;32.72;43.11
13050;BME280;6591;51.446;5.404;2022-09-06T08:55:44;101166.66;;;32.85;42.55
13050;BME280;6591;51.446;5.404;2022-09-06T08:59:04;101162.84;;;32.86;42.05
13050;BME280;6591;51.446;5.404;2022-09-06T09:02:08;101168.78;;;32.89;41.93
13050;BME280;6591;51.446;5.404;2022-09-06T09:04:51;101171.13;;;32.99;41.48
13050;BME280;6591;51.446;5.404;2022-09-06T09:08:12;101170.72;;;33.02;42.29
13050;BME280;6591;51.446;5.404;2022-09-06T09:10:49;101168.69;;;33.17;41.48
13050;BME280;6591;51.446;5.404;2022-09-06T09:16:09;101161.28;;;33.37;41.46
13050;BME280;6591;51.446;5.404;2022-09-06T09:18:42;101160.44;;;33.43;41.47
13050;BME280;6591;51.446;5.404;2022-09-06T09:21:11;101159.16;;;33.52;40.86
13050;BME280;6591;51.446;5.404;2022-09-06T09:23:38;101155.34;;;33.60;41.02
13050;BME280;6591;51.446;5.404;2022-09-06T09:26:11;101153.44;;;33.67;40.77
13050;BME280;6591;51.446;5.404;2022-09-06T09:29:09;101161.28;;;33.77;40.48
13050;BME280;6591;51.446;5.404;2022-09-06T09:31:49;101162.56;;;33.87;39.74
13050;BME280;6591;51.446;5.404;2022-09-06T09:34:36;101161.69;;;33.93;40.55
13050;BME280;6591;51.446;5.404;2022-09-06T09:37:11;101165.72;;;34.04;39.48
13050;BME280;6591;51.446;5.404;2022-09-06T09:40:01;101164.22;;;34.08;39.36
13050;BME280;6591;51.446;5.404;2022-09-06T09:42:35;101164.00;;;34.03;38.83
13050;BME280;6591;51.446;5.404;2022-09-06T09:45:28;101160.00;;;33.92;39.06
13050;BME280;6591;51.446;5.404;2022-09-06T09:47:56;101157.44;;;33.97;38.90
13050;BME280;6591;51.446;5.404;2022-09-06T09:50:35;101159.34;;;33.97;38.87
13050;BME280;6591;51.446;5.404;2022-09-06T09:53:11;101154.69;;;34.04;39.13
13050;BME280;6591;51.446;5.404;2022-09-06T09:55:40;101144.69;;;34.16;38.54
13050;BME280;6591;51.446;5.404;2022-09-06T09:58:35;101140.66;;;34.25;39.86
13050;BME280;6591;51.446;5.404;2022-09-06T10:01:33;101150.75;;;34.44;39.71
13050;BME280;6591;51.446;5.404;2022-09-06T10:04:06;101161.72;;;34.71;39.40
13050;BME280;6591;51.446;5.404;2022-09-06T10:07:17;101168.41;;;34.95;38.97
13050;BME280;6591;51.446;5.404;2022-09-06T10:09:56;101169.31;;;35.13;39.12
13050;BME280;6591;51.446;5.404;2022-09-06T10:12:36;101164.19;;;35.23;38.73
13050;BME280;6591;51.446;5.404;2022-09-06T10:15:10;101159.00;;;35.34;38.58
13050;BME280;6591;51.446;5.404;2022-09-06T10:17:50;101160.88;;;35.40;37.81
13050;BME280;6591;51.446;5.404;2022-09-06T10:20:18;101165.69;;;35.51;38.24
13050;BME280;6591;51.446;5.404;2022-09-06T10:25:44;101171.31;;;35.62;37.53
13050;BME280;6591;51.446;5.404;2022-09-06T10:28:30;101175.13;;;35.68;37.44
13050;BME280;6591;51.446;5.404;2022-09-06T10:35:19;101168.72;;;35.92;37.77
13050;BME280;6591;51.446;5.404;2022-09-06T10:37:57;101167.66;;;36.11;37.09
13050;BME280;6591;51.446;5.404;2022-09-06T10:41:08;101150.75;;;36.26;36.32
13050;BME280;6591;51.446;5.404;2022-09-06T10:43:44;101143.59;;;36.37;36.32
13050;BME280;6591;51.446;5.404;2022-09-06T10:46:16;101146.66;;;36.47;36.44
13050;BME280;6591;51.446;5.404;2022-09-06T10:48:47;101155.25;;;36.57;35.93
13050;BME280;6591;51.446;5.404;2022-09-06T10:56:58;101144.13;;;36.64;35.64
13050;BME280;6591;51.446;5.404;2022-09-06T10:59:52;101154.50;;;36.68;34.77
13050;BME280;6591;51.446;5.404;2022-09-06T11:05:51;101154.94;;;36.65;35.47
13050;BME280;6591;51.446;5.404;2022-09-06T11:08:58;101155.94;;;36.71;35.39
13050;BME280;6591;51.446;5.404;2022-09-06T11:14:43;101169.66;;;36.96;34.60
13050;BME280;6591;51.446;5.404;2022-09-06T11:17:39;101177.16;;;36.95;34.49
13050;BME280;6591;51.446;5.404;2022-09-06T11:23:17;101177.66;;;37.04;33.34
13050;BME280;6591;51.446;5.404;2022-09-06T11:26:13;101167.19;;;37.06;33.49
13050;BME280;6591;51.446;5.404;2022-09-06T11:29:15;101176.31;;;37.06;33.44
13050;BME280;6591;51.446;5.404;2022-09-06T11:31:58;101183.19;;;37.04;32.24
13050;BME280;6591;51.446;5.404;2022-09-06T11:34:56;101179.16;;;36.88;32.14
13050;BME280;6591;51.446;5.404;2022-09-06T11:37:32;101178.56;;;36.68;31.46
13050;BME280;6591;51.446;5.404;2022-09-06T11:40:22;101180.56;;;36.42;32.22
13050;BME280;6591;51.446;5.404;2022-09-06T11:45:42;101183.16;;;36.19;31.70
13050;BME280;6591;51.446;5.404;2022-09-06T11:51:07;101166.13;;;35.97;31.99
13050;BME280;6591;51.446;5.404;2022-09-06T11:56:28;101161.66;;;35.78;31.51
13050;BME280;6591;51.446;5.404;2022-09-06T12:07:29;101159.16;;;35.70;32.12
13050;BME280;6591;51.446;5.404;2022-09-06T12:10:00;101151.19;;;35.80;32.55
13050;BME280;6591;51.446;5.404;2022-09-06T12:12:45;101160.00;;;35.95;32.14
13050;BME280;6591;51.446;5.404;2022-09-06T12:15:59;101147.06;;;36.07;31.85
13050;BME280;6591;51.446;5.404;2022-09-06T12:21:38;101144.28;;;36.32;31.78
13050;BME280;6591;51.446;5.404;2022-09-06T12:24:49;101143.47;;;36.43;31.13
13050;BME280;6591;51.446;5.404;2022-09-06T12:27:24;101149.50;;;36.59;31.73
13050;BME280;6591;51.446;5.404;2022-09-06T12:30:02;101158.94;;;36.69;31.45
13050;BME280;6591;51.446;5.404;2022-09-06T12:35:19;101137.31;;;36.78;31.71
13050;BME280;6591;51.446;5.404;2022-09-06T12:38:13;101136.31;;;37.02;30.91
13050;BME280;6591;51.446;5.404;2022-09-06T12:40:49;101138.66;;;37.17;30.67
13050;BME280;6591;51.446;5.404;2022-09-06T12:43:26;101132.19;;;37.23;30.08
13050;BME280;6591;51.446;5.404;2022-09-06T12:45:54;101135.78;;;37.23;29.92
13050;BME280;6591;51.446;5.404;2022-09-06T12:48:29;101118.69;;;37.15;30.17
13050;BME280;6591;51.446;5.404;2022-09-06T12:51:03;101117.59;;;37.16;29.93
13050;BME280;6591;51.446;5.404;2022-09-06T12:53:32;101105.44;;;37.28;30.97
13050;BME280;6591;51.446;5.404;2022-09-06T12:56:08;101112.56;;;37.48;30.71
13050;BME280;6591;51.446;5.404;2022-09-06T12:58:37;101112.25;;;37.67;30.37
13050;BME280;6591;51.446;5.404;2022-09-06T13:01:22;101108.25;;;37.75;29.27
13050;BME280;6591;51.446;5.404;2022-09-06T13:04:02;101113.06;;;37.80;29.43
13050;BME280;6591;51.446;5.404;2022-09-06T13:06:39;101110.81;;;37.77;28.99
13050;BME280;6591;51.446;5.404;2022-09-06T13:09:13;101103.44;;;37.70;29.16
13050;BME280;6591;51.446;5.404;2022-09-06T13:11:48;101100.09;;;37.68;28.81
13050;BME280;6591;51.446;5.404;2022-09-06T13:14:27;101106.72;;;37.67;29.59
13050;BME280;6591;51.446;5.404;2022-09-06T13:16:55;101107.53;;;37.80;29.77
13050;BME280;6591;51.446;5.404;2022-09-06T13:19:39;101112.22;;;37.91;28.61
13050;BME280;6591;51.446;5.404;2022-09-06T13:22:09;101102.22;;;38.01;28.83
13050;BME280;6591;51.446;5.404;2022-09-06T13:24:44;101091.13;;;38.01;28.57
13050;BME280;6591;51.446;5.404;2022-09-06T13:30:04;101085.44;;;37.96;28.38
13050;BME280;6591;51.446;5.404;2022-09-06T13:32:36;101091.97;;;37.90;28.01
13050;BME280;6591;51.446;5.404;2022-09-06T13:35:26;101083.41;;;37.80;27.74
13050;BME280;6591;51.446;5.404;2022-09-06T13:38:32;101068.13;;;37.78;28.73
13050;BME280;6591;51.446;5.404;2022-09-06T13:44:03;101053.00;;;37.97;27.58
13050;BME280;6591;51.446;5.404;2022-09-06T13:46:31;101047.69;;;38.07;27.36
13050;BME280;6591;51.446;5.404;2022-09-06T13:49:01;101047.31;;;38.15;27.83
13050;BME280;6591;51.446;5.404;2022-09-06T13:51:28;101045.31;;;38.27;27.32
13050;BME280;6591;51.446;5.404;2022-09-06T13:54:14;101036.19;;;38.43;27.82
13050;BME280;6591;51.446;5.404;2022-09-06T13:56:42;101041.78;;;38.72;28.02
13050;BME280;6591;51.446;5.404;2022-09-06T13:59:14;101044.78;;;38.98;27.79
13050;BME280;6591;51.446;5.404;2022-09-06T14:01:46;101033.41;;;39.17;27.02
13050;BME280;6591;51.446;5.404;2022-09-06T14:04:17;101041.66;;;39.28;26.76
13050;BME280;6591;51.446;5.404;2022-09-06T14:06:47;101040.16;;;39.37;26.67
13050;BME280;6591;51.446;5.404;2022-09-06T14:09:15;101051.44;;;39.48;26.06
13050;BME280;6591;51.446;5.404;2022-09-06T14:11:42;101042.59;;;39.51;26.17
13050;BME280;6591;51.446;5.404;2022-09-06T14:14:15;101054.88;;;39.55;25.48
13050;BME280;6591;51.446;5.404;2022-09-06T14:16:44;101056.22;;;39.52;25.96
13050;BME280;6591;51.446;5.404;2022-09-06T14:19:12;101053.44;;;39.52;26.00
13050;BME280;6591;51.446;5.404;2022-09-06T14:21:39;101053.25;;;39.59;25.64
13050;BME280;6591;51.446;5.404;2022-09-06T14:24:06;101051.31;;;39.59;25.36
13050;BME280;6591;51.446;5.404;2022-09-06T14:26:35;101042.72;;;39.61;24.97
13050;BME280;6591;51.446;5.404;2022-09-06T14:29:03;101043.91;;;39.65;25.21
13050;BME280;6591;51.446;5.404;2022-09-06T14:31:31;101048.75;;;39.74;25.11
13050;BME280;6591;51.446;5.404;2022-09-06T14:34:01;101031.66;;;39.83;24.87
13050;BME280;6591;51.446;5.404;2022-09-06T14:36:29;101041.41;;;39.85;25.09
13050;BME280;6591;51.446;5.404;2022-09-06T14:38:59;101044.03;;;39.92;25.07
13050;BME280;6591;51.446;5.404;2022-09-06T14:41:27;101046.63;;;39.98;25.07
13050;BME280;6591;51.446;5.404;2022-09-06T14:43:56;101045.25;;;40.01;24.57
13050;BME280;6591;51.446;5.404;2022-09-06T14:46:26;101039.69;;;40.01;24.56
13050;BME280;6591;51.446;5.404;2022-09-06T14:49:06;101034.41;;;40.04;24.06
13050;BME280;6591;51.446;5.404;2022-09-06T14:51:35;101030.88;;;40.09;24.35
13050;BME280;6591;51.446;5.404;2022-09-06T14:54:09;101032.88;;;40.13;23.87
13050;BME280;6591;51.446;5.404;2022-09-06T14:56:39;101028.56;;;40.22;23.86
13050;BME280;6591;51.446;5.404;2022-09-06T14:59:08;101027.56;;;40.34;23.90
13050;BME280;6591;51.446;5.404;2022-09-06T15:01:36;101024.66;;;40.45;24.00
13050;BME280;6591;51.446;5.404;2022-09-06T15:04:08;101021.81;;;40.67;24.16